createdAt,value
2022-10-20T00:55:30.466Z,-0.13
2022-10-20T01:05:36.404Z,-0.30
2022-10-20T01:15:47.691Z,-0.37
2022-10-20T01:26:07.913Z,-0.39
2022-10-20T01:36:21.787Z,-0.43
2022-10-20T01:46:29.013Z,-0.52
2022-10-20T02:08:08.091Z,-0.70
2022-10-20T02:18:19.139Z,-0.78
2022-10-20T02:39:47.599Z,-0.91
2022-10-20T03:01:15.517Z,-1.06
2022-10-20T03:11:21.181Z,-1.11
2022-10-20T03:21:26.813Z,-1.18
2022-10-20T03:31:32.526Z,-1.28
2022-10-20T03:41:38.155Z,-1.35
2022-10-20T03:51:43.785Z,-1.49
2022-10-20T04:01:50.219Z,-1.55
2022-10-20T04:11:55.903Z,-1.55
2022-10-20T04:22:01.487Z,-1.59
2022-10-20T04:32:07.543Z,-1.49
2022-10-20T04:42:13.208Z,-1.25
2022-10-20T04:52:20.881Z,-1.06
2022-10-20T05:02:26.580Z,-0.95
2022-10-20T05:12:32.138Z,-0.93
2022-10-20T05:22:38.091Z,-0.89
2022-10-20T05:32:43.862Z,-0.88
2022-10-20T05:42:49.463Z,-0.84
2022-10-20T05:52:55.434Z,-0.66
2022-10-20T06:03:01.333Z,-0.27
2022-10-20T06:13:07.000Z,0.71
2022-10-20T06:23:12.630Z,4.95
2022-10-20T06:33:18.187Z,8.89
2022-10-20T06:43:23.849Z,12.66
2022-10-20T06:53:31.091Z,15.87
2022-10-20T07:03:38.430Z,18.62
2022-10-20T07:13:44.558Z,21.74
2022-10-20T07:23:51.508Z,24.04
2022-10-20T07:34:13.181Z,25.75
2022-10-20T07:44:20.360Z,27.03
2022-10-20T07:54:26.003Z,28.01
2022-10-20T08:04:32.017Z,29.64
2022-10-20T08:14:37.970Z,31.15
2022-10-20T08:24:43.585Z,31.62
2022-10-20T08:34:49.226Z,31.90
2022-10-20T08:44:59.411Z,31.88
2022-10-20T08:55:07.836Z,31.25
2022-10-20T09:05:18.224Z,29.45
2022-10-20T09:15:26.672Z,26.25
2022-10-20T09:25:33.178Z,21.75
2022-10-20T09:35:40.701Z,18.60
2022-10-20T09:45:54.291Z,16.22
2022-10-20T09:56:00.352Z,15.27
2022-10-20T10:06:23.345Z,14.58
2022-10-20T10:16:40.623Z,13.83
2022-10-20T10:26:49.038Z,13.18
2022-10-20T10:36:54.843Z,12.17
2022-10-20T10:47:14.599Z,11.38
2022-10-20T10:57:31.501Z,11.26
2022-10-20T11:07:45.090Z,11.37
2022-10-20T11:18:02.002Z,11.45
2022-10-20T11:28:30.477Z,11.53
2022-10-20T11:38:41.469Z,11.70
2022-10-20T11:48:51.860Z,11.60
2022-10-20T11:59:16.229Z,10.91
2022-10-20T12:09:36.329Z,10.59
2022-10-20T12:19:41.976Z,10.37
2022-10-20T12:29:59.277Z,9.84
2022-10-20T12:40:25.723Z,9.66
2022-10-20T12:50:36.855Z,9.89
2022-10-20T13:01:07.047Z,10.00
2022-10-20T13:11:41.971Z,10.04
2022-10-20T13:21:49.785Z,9.97
2022-10-20T13:32:12.955Z,9.78
2022-10-20T13:42:44.010Z,9.43
2022-10-20T13:52:53.853Z,9.11
2022-10-20T14:03:02.271Z,8.94
2022-10-20T14:13:11.405Z,8.82
2022-10-20T14:23:17.323Z,8.68
2022-10-20T14:33:23.436Z,8.54
2022-10-20T14:43:37.236Z,8.42
2022-10-20T14:53:42.848Z,8.27
2022-10-20T15:03:48.609Z,8.09
2022-10-20T15:13:56.221Z,8.04
2022-10-20T15:24:02.259Z,7.83
2022-10-20T15:34:10.229Z,7.43
2022-10-20T15:44:16.374Z,7.07
2022-10-20T15:54:23.811Z,6.77
2022-10-20T16:04:31.450Z,6.49
2022-10-20T16:14:38.128Z,6.19
2022-10-20T16:24:43.820Z,5.97
2022-10-20T16:34:49.443Z,5.77
2022-10-20T16:44:55.082Z,5.59
2022-10-20T16:55:00.784Z,5.48
2022-10-20T17:05:09.347Z,5.40
2022-10-20T17:15:15.430Z,5.25
2022-10-20T17:25:21.049Z,5.07
2022-10-20T17:35:26.758Z,4.90
2022-10-20T17:45:35.017Z,4.78
2022-10-20T17:55:43.283Z,4.67
2022-10-20T18:05:48.876Z,4.52
2022-10-20T18:15:54.658Z,4.42
2022-10-20T18:26:06.226Z,4.33
2022-10-20T18:36:14.251Z,4.25
2022-10-20T18:46:20.164Z,4.19
2022-10-20T18:56:27.364Z,4.09
2022-10-20T19:06:35.065Z,3.98
2022-10-20T19:16:39.897Z,3.80
2022-10-20T19:26:56.785Z,3.61
2022-10-20T19:37:12.727Z,3.44
2022-10-20T19:47:22.586Z,3.21
2022-10-20T19:57:28.526Z,2.95
2022-10-20T20:07:34.513Z,2.72
2022-10-20T20:17:40.681Z,2.54
2022-10-20T20:27:46.368Z,2.41
2022-10-20T20:37:52.065Z,2.29
2022-10-20T20:47:57.741Z,2.18
2022-10-20T20:58:03.670Z,2.03
2022-10-20T21:08:09.462Z,1.92
2022-10-20T21:18:15.011Z,1.85
2022-10-20T21:28:20.560Z,1.77
2022-10-20T21:38:29.238Z,1.68
2022-10-20T21:58:42.164Z,1.52
2022-10-20T22:08:50.512Z,1.38
2022-10-20T22:18:59.043Z,1.34
2022-10-20T22:29:06.625Z,1.33
2022-10-20T22:49:23.476Z,1.28
2022-10-20T22:59:29.088Z,1.26
2022-10-20T23:09:34.774Z,1.21
2022-10-20T23:19:40.386Z,1.11
2022-10-20T23:29:45.969Z,1.03
2022-10-20T23:39:51.818Z,0.92
2022-10-20T23:49:57.645Z,0.84
